Aeroporto :
LOGIN :

Iscrizione | Disclaimer

   EN    FR    IT 

 










Sommario :    VFR   VFR Marginale   IFR   IFR Intensivo   IFR Molto Intensivo
Visibilità : 
Base nubi : 
>= 8 km
>= 3000ft
5 / 8 km
1000 / 3000 ft
1500m / 5 km
500 / 1000 ft
800 / 1500m
200 / 500 ft
< 800m
< 200 ft
Simboli :   Temporali  Nebbia  Neve Forte  Precipitazioni Forti  Vento > 20 kt
SIGMETs :   Varie  Temporali  Ghiacco  Turbolenza  Onda orograficha  Ceneri Vulcaniche






- Altitudine del aeroporto : 142 ft
- Codice IATA : ALC


LEAL - Alicante

ULTIMO METAR :
  • 011700Z 19007KT 150V250 CAVOK 26/18 Q1006 NOSIG

METARs OBSOLETI :
  • 011630Z 19009KT 140V230 CAVOK 26/18 Q1006 NOSIG
  • 011600Z 19009KT 130V230 CAVOK 26/18 Q1006 NOSIG
  • 011530Z 18011KT 080V230 CAVOK 27/17 Q1006 NOSIG
  • 011500Z 18011KT 120V230 CAVOK 28/16 Q1007 NOSIG
  • 011430Z 18012KT 120V230 CAVOK 28/17 Q1007 NOSIG

TAF TAF LEAL
Valido dal 01 a 12 ore il 02 a 12 ore UTC


011100Z 0112/0212 20016KT 9999 FEW035 TX31/0112Z TN15/0206Z
TEMPO 0113/0117 20018G28KT
BECMG 0118/0120 25007KT
TEMPO 0121/0202 31012KT
BECMG 0208/0210 25015KT
TEMPO 0209/0212 25015G30KT



MetMap, La meteo Aeronautica in un colpo d'occhio ! - Copyright ORBIFLY Dicembre 2007 - Disclaimer

ORBIFLY MET'MAP TEAM :

Programmazione e sviluppo : Alexandra Zaïnal
Concezione : Baudouin d'Aumeries
Aiuto per la programmazione : Marc-Olivier Méhu
Supporto tecnico e logistico : Manuel Goepfert
Aiuto per la traduzione : Arnaldo La Scala

Contatto : metmap@orbifly.com




FONTI E CREDITI :

   NOAA